createdAt,value
2022-12-12T00:00:45.722Z,92.54
2022-12-12T00:03:13.821Z,92.08
2022-12-12T00:05:42.135Z,92.55
2022-12-12T00:08:09.944Z,92.30
2022-12-12T00:10:39.104Z,92.64
2022-12-12T00:13:07.077Z,92.14
2022-12-12T00:15:34.820Z,92.56
2022-12-12T00:18:02.644Z,92.05
2022-12-12T00:20:30.497Z,92.24
2022-12-12T00:22:58.269Z,92.26
2022-12-12T00:25:26.024Z,92.10
2022-12-12T00:27:55.186Z,92.27
2022-12-12T00:30:23.370Z,92.31
2022-12-12T00:32:51.115Z,92.38
2022-12-12T00:35:19.049Z,93.02
2022-12-12T00:37:46.822Z,92.90
2022-12-12T00:40:14.773Z,93.04
2022-12-12T00:42:42.814Z,93.16
2022-12-12T00:45:12.978Z,93.29
2022-12-12T00:47:40.865Z,93.29
2022-12-12T00:50:09.761Z,93.25
2022-12-12T00:52:37.546Z,93.09
2022-12-12T00:55:06.199Z,92.95
2022-12-12T00:57:34.391Z,93.13
2022-12-12T01:00:02.096Z,93.62
2022-12-12T01:02:31.480Z,93.02
2022-12-12T01:04:59.271Z,93.31
2022-12-12T01:07:27.097Z,93.36
2022-12-12T01:09:54.849Z,93.40
2022-12-12T01:12:22.604Z,93.30
2022-12-12T01:14:50.343Z,93.31
2022-12-12T01:17:18.172Z,93.03
2022-12-12T01:19:47.300Z,93.50
2022-12-12T01:22:15.395Z,93.22
2022-12-12T01:24:43.442Z,92.94
2022-12-12T01:27:11.514Z,93.25
2022-12-12T01:29:39.335Z,93.29
2022-12-12T01:32:07.148Z,93.44
2022-12-12T01:34:34.924Z,93.66
2022-12-12T01:37:04.217Z,93.62
2022-12-12T01:39:32.045Z,94.27
2022-12-12T01:41:59.806Z,93.32
2022-12-12T01:44:44.520Z,93.44
2022-12-12T01:47:14.131Z,93.61
2022-12-12T01:49:44.619Z,93.32
2022-12-12T01:52:17.950Z,93.58
2022-12-12T01:54:48.883Z,93.60
2022-12-12T01:57:22.344Z,93.88
2022-12-12T01:59:50.282Z,93.93
2022-12-12T02:02:18.635Z,93.58
2022-12-12T02:04:46.848Z,94.05
2022-12-12T02:07:17.809Z,93.51
2022-12-12T02:09:47.264Z,93.62
2022-12-12T02:12:15.965Z,93.46
2022-12-12T02:14:49.008Z,93.63
2022-12-12T02:17:33.992Z,92.91
2022-12-12T02:20:43.524Z,92.72
2022-12-12T02:23:42.912Z,92.98
2022-12-12T02:26:49.079Z,93.33
2022-12-12T02:30:04.194Z,92.70
2022-12-12T02:32:50.885Z,93.32
2022-12-12T02:35:27.968Z,93.26
2022-12-12T02:38:07.964Z,93.27
2022-12-12T02:40:43.805Z,92.86
2022-12-12T02:43:17.507Z,93.10
2022-12-12T02:45:49.513Z,92.89
2022-12-12T02:48:25.026Z,93.02
2022-12-12T02:50:57.326Z,93.35
2022-12-12T02:53:25.638Z,93.25
2022-12-12T02:56:03.485Z,92.98
2022-12-12T02:58:32.270Z,93.20
2022-12-12T03:01:12.320Z,93.35
2022-12-12T03:04:03.207Z,93.31
2022-12-12T03:07:01.950Z,93.16
2022-12-12T03:09:42.300Z,92.34
2022-12-12T03:12:13.910Z,92.90
2022-12-12T03:14:54.345Z,92.46
2022-12-12T03:17:29.888Z,92.64
2022-12-12T03:20:04.701Z,92.79
2022-12-12T03:22:39.102Z,92.72
2022-12-12T03:25:13.238Z,92.72
2022-12-12T03:27:48.848Z,92.79
2022-12-12T03:30:18.855Z,92.83
2022-12-12T03:32:53.238Z,92.72
2022-12-12T03:35:26.513Z,92.82
2022-12-12T03:37:59.338Z,92.91
2022-12-12T03:40:32.742Z,92.25
2022-12-12T03:43:04.366Z,92.85
2022-12-12T03:45:38.123Z,92.89
2022-12-12T03:48:12.214Z,92.47
2022-12-12T03:50:45.811Z,92.61
2022-12-12T03:53:19.087Z,92.66
2022-12-12T03:55:52.203Z,92.81
2022-12-12T03:58:24.883Z,93.53
2022-12-12T04:00:55.898Z,93.00
2022-12-12T04:03:28.845Z,93.09
2022-12-12T04:06:22.269Z,93.07
2022-12-12T04:09:04.952Z,93.06
2022-12-12T04:11:55.997Z,92.83
2022-12-12T04:14:41.944Z,92.70
2022-12-12T04:17:14.147Z,92.84
2022-12-12T04:20:08.984Z,92.98
2022-12-12T04:23:03.221Z,93.02
2022-12-12T04:25:59.570Z,92.67
2022-12-12T04:28:29.621Z,92.86
2022-12-12T04:31:02.906Z,93.23
2022-12-12T04:33:42.417Z,92.41
2022-12-12T04:36:13.584Z,92.77
2022-12-12T04:38:44.164Z,93.20
2022-12-12T04:41:15.206Z,92.73
2022-12-12T04:43:47.692Z,92.58
2022-12-12T04:46:18.599Z,92.79
2022-12-12T04:48:53.603Z,92.63
2022-12-12T04:51:29.459Z,92.94
2022-12-12T04:54:04.436Z,92.40
2022-12-12T04:56:35.358Z,92.65
2022-12-12T04:59:04.136Z,93.08
2022-12-12T05:01:39.657Z,93.14
2022-12-12T05:04:13.777Z,93.19
2022-12-12T05:06:46.186Z,92.93
2022-12-12T05:09:17.576Z,92.92
2022-12-12T05:11:45.535Z,93.03
2022-12-12T05:14:17.087Z,92.61
2022-12-12T05:16:48.445Z,92.72
2022-12-12T05:19:16.281Z,92.53
2022-12-12T05:21:44.077Z,92.37
2022-12-12T05:24:11.831Z,92.63
2022-12-12T05:26:41.073Z,92.71
2022-12-12T05:29:08.814Z,92.61
2022-12-12T05:31:36.762Z,92.70
2022-12-12T05:34:05.107Z,92.35
2022-12-12T05:36:33.059Z,92.72
2022-12-12T05:39:00.943Z,92.31
2022-12-12T05:41:28.732Z,92.36
2022-12-12T05:43:57.912Z,92.80
2022-12-12T05:46:26.045Z,93.08
2022-12-12T05:48:53.820Z,92.98
2022-12-12T05:51:22.425Z,92.91
2022-12-12T05:53:50.426Z,92.85
2022-12-12T05:56:18.234Z,92.87
2022-12-12T05:58:46.016Z,92.51
2022-12-12T06:01:15.178Z,92.91
2022-12-12T06:03:43.068Z,92.74
2022-12-12T06:06:10.999Z,92.72
2022-12-12T06:08:38.772Z,92.77
2022-12-12T06:11:07.609Z,93.29
2022-12-12T06:13:35.914Z,93.19
2022-12-12T06:16:07.453Z,93.03
2022-12-12T06:18:36.731Z,93.07
2022-12-12T06:21:06.211Z,93.18
2022-12-12T06:23:37.197Z,93.12
2022-12-12T06:26:05.255Z,93.03
2022-12-12T06:28:33.443Z,93.22
2022-12-12T06:31:02.651Z,93.18
2022-12-12T06:33:32.152Z,93.04
2022-12-12T06:36:03.343Z,92.76
2022-12-12T06:38:32.148Z,92.98
2022-12-12T06:41:00.109Z,92.97
2022-12-12T06:43:27.877Z,93.02
2022-12-12T06:46:02.004Z,93.11
2022-12-12T06:48:30.721Z,93.31
2022-12-12T06:50:58.821Z,93.32
2022-12-12T06:53:28.025Z,93.54
2022-12-12T06:55:55.819Z,93.21
2022-12-12T06:58:23.651Z,93.48
2022-12-12T07:00:52.541Z,93.44
2022-12-12T07:03:20.936Z,93.32
2022-12-12T07:05:48.908Z,93.25
2022-12-12T07:08:17.650Z,93.89
2022-12-12T07:10:48.585Z,93.77
2022-12-12T07:13:16.591Z,93.88
2022-12-12T07:15:45.588Z,93.34
2022-12-12T07:18:13.748Z,93.32
2022-12-12T07:20:42.141Z,93.51
2022-12-12T07:23:10.794Z,93.32
2022-12-12T07:25:39.711Z,93.35
2022-12-12T07:28:10.124Z,93.24
2022-12-12T07:30:40.696Z,93.03
2022-12-12T07:33:09.001Z,93.10
2022-12-12T07:35:37.165Z,92.84
2022-12-12T07:38:05.780Z,93.17
2022-12-12T07:40:34.074Z,93.26
2022-12-12T07:43:02.168Z,92.96
2022-12-12T07:45:31.698Z,93.25
2022-12-12T07:47:59.528Z,93.10
2022-12-12T07:50:27.276Z,93.05
2022-12-12T07:52:55.049Z,93.06
2022-12-12T07:55:22.826Z,92.89
2022-12-12T07:57:50.578Z,92.76
2022-12-12T08:00:22.484Z,92.77
2022-12-12T08:02:51.584Z,92.71
2022-12-12T08:05:19.469Z,93.12
2022-12-12T08:07:47.446Z,93.18
2022-12-12T08:10:15.474Z,93.32
2022-12-12T08:12:43.430Z,93.45
2022-12-12T08:15:16.772Z,93.13
2022-12-12T08:17:44.604Z,93.53
2022-12-12T08:20:13.964Z,93.56
2022-12-12T08:22:42.142Z,93.50
2022-12-12T08:25:10.733Z,93.41
2022-12-12T08:27:38.988Z,93.40
2022-12-12T08:30:08.595Z,93.27
2022-12-12T08:32:37.214Z,93.30
2022-12-12T08:35:05.803Z,92.91
2022-12-12T08:37:35.155Z,93.27
2022-12-12T08:40:03.273Z,92.93
2022-12-12T08:42:31.096Z,93.24
2022-12-12T08:44:58.869Z,92.96
2022-12-12T08:47:27.186Z,93.23
2022-12-12T08:49:55.021Z,92.91
2022-12-12T08:52:22.784Z,93.33
2022-12-12T08:54:51.949Z,93.24
2022-12-12T08:57:25.644Z,93.01
2022-12-12T08:59:53.940Z,93.39
2022-12-12T09:02:21.831Z,92.74
2022-12-12T09:04:49.645Z,93.24
2022-12-12T09:07:17.472Z,93.42
2022-12-12T09:09:45.513Z,93.61
2022-12-12T09:12:15.546Z,93.58
2022-12-12T09:14:43.314Z,93.22
2022-12-12T09:17:11.122Z,93.60
2022-12-12T09:19:39.178Z,93.75
2022-12-12T09:22:06.963Z,93.83
2022-12-12T09:24:34.719Z,94.41
2022-12-12T09:27:02.619Z,94.37
2022-12-12T09:29:31.993Z,93.79
2022-12-12T09:31:59.912Z,94.42
2022-12-12T09:34:28.050Z,94.38
2022-12-12T09:36:55.853Z,94.26
2022-12-12T09:39:23.668Z,95.06
2022-12-12T09:41:51.535Z,94.50
2022-12-12T09:44:22.455Z,94.93
2022-12-12T09:46:55.490Z,95.01
2022-12-12T09:49:28.313Z,95.22
2022-12-12T09:51:58.524Z,95.15
2022-12-12T09:54:27.794Z,95.37
2022-12-12T09:57:06.216Z,95.27
2022-12-12T09:59:41.845Z,96.09
2022-12-12T10:02:29.101Z,95.97
2022-12-12T10:05:02.702Z,96.13
2022-12-12T10:07:37.645Z,96.32
2022-12-12T10:10:18.429Z,96.11
2022-12-12T10:12:47.628Z,97.09
2022-12-12T10:15:26.310Z,96.17
2022-12-12T10:17:58.400Z,96.78
2022-12-12T10:20:28.763Z,96.30
2022-12-12T10:23:03.276Z,96.47
2022-12-12T10:25:40.660Z,96.77
2022-12-12T10:28:12.844Z,96.60
2022-12-12T10:30:55.670Z,96.09
2022-12-12T10:33:33.418Z,96.10
2022-12-12T10:36:10.719Z,95.90
2022-12-12T10:39:00.030Z,96.23
2022-12-12T10:41:35.348Z,96.01
2022-12-12T10:44:06.726Z,95.67
2022-12-12T10:46:41.291Z,95.24
2022-12-12T10:49:16.258Z,94.98
2022-12-12T10:51:46.710Z,94.89
2022-12-12T10:54:19.344Z,95.27
2022-12-12T10:57:07.905Z,95.78
2022-12-12T10:59:46.305Z,95.54
2022-12-12T11:02:36.835Z,95.06
2022-12-12T11:05:17.354Z,95.46
2022-12-12T11:07:47.551Z,95.31
2022-12-12T11:10:33.449Z,95.20
2022-12-12T11:13:03.925Z,95.19
2022-12-12T11:15:39.684Z,94.00
2022-12-12T11:18:08.712Z,94.07
2022-12-12T11:20:45.937Z,94.58
2022-12-12T11:23:19.608Z,94.73
2022-12-12T11:25:55.224Z,94.68
2022-12-12T11:28:25.488Z,94.54
2022-12-12T11:30:55.680Z,94.24
2022-12-12T11:33:32.052Z,94.53
2022-12-12T11:36:06.440Z,94.43
2022-12-12T11:38:40.847Z,94.29
2022-12-12T11:41:11.462Z,94.44
2022-12-12T11:43:55.171Z,93.88
2022-12-12T11:46:26.445Z,93.74
2022-12-12T11:49:00.781Z,92.37
2022-12-12T11:51:35.972Z,93.41
2022-12-12T11:54:05.918Z,93.36
2022-12-12T11:56:43.097Z,92.68
2022-12-12T11:59:55.860Z,92.92
2022-12-12T12:02:57.062Z,92.67
2022-12-12T12:05:33.165Z,92.65
2022-12-12T12:08:17.191Z,91.98
2022-12-12T12:10:57.053Z,92.23
2022-12-12T12:13:41.875Z,92.37
2022-12-12T12:16:17.086Z,89.19
2022-12-12T12:18:59.534Z,90.11
2022-12-12T12:21:38.393Z,90.23
2022-12-12T12:24:33.849Z,90.80
2022-12-12T12:27:09.885Z,90.67
2022-12-12T12:29:53.312Z,90.57
2022-12-12T12:32:29.824Z,90.79
2022-12-12T12:35:11.641Z,90.40
2022-12-12T12:37:54.147Z,90.12
2022-12-12T12:40:39.878Z,90.56
2022-12-12T12:43:30.891Z,90.65
2022-12-12T12:46:08.520Z,89.57
2022-12-12T12:48:40.313Z,89.60
2022-12-12T12:51:14.632Z,89.94
2022-12-12T12:53:47.450Z,90.03
2022-12-12T12:56:26.256Z,88.92
2022-12-12T12:58:59.188Z,89.32
2022-12-12T13:01:30.485Z,89.58
2022-12-12T13:04:04.002Z,89.70
2022-12-12T13:06:40.358Z,89.58
2022-12-12T13:09:22.901Z,89.90
2022-12-12T13:12:00.257Z,89.02
2022-12-12T13:14:38.611Z,89.11
2022-12-12T13:17:09.217Z,88.77
2022-12-12T13:19:40.653Z,89.08
2022-12-12T13:22:14.978Z,88.50
2022-12-12T13:24:51.587Z,88.35
2022-12-12T13:27:29.617Z,88.24
2022-12-12T13:30:02.981Z,87.97
2022-12-12T13:32:54.315Z,88.22
2022-12-12T13:35:29.367Z,88.46
2022-12-12T13:37:58.002Z,88.25
2022-12-12T13:40:30.565Z,88.77
2022-12-12T13:43:09.061Z,88.33
2022-12-12T13:45:43.915Z,88.39
2022-12-12T13:48:41.476Z,88.30
2022-12-12T13:51:41.303Z,88.85
2022-12-12T13:54:51.366Z,87.86
2022-12-12T13:57:31.668Z,87.99
2022-12-12T14:00:31.155Z,87.05
2022-12-12T14:03:25.451Z,86.17
2022-12-12T14:05:54.452Z,86.97
2022-12-12T14:08:32.529Z,86.57
2022-12-12T14:11:03.539Z,87.26
2022-12-12T14:13:45.382Z,87.14
2022-12-12T14:16:26.240Z,87.43
2022-12-12T14:19:35.637Z,86.55
2022-12-12T14:22:03.633Z,87.99
2022-12-12T14:25:05.667Z,87.13
2022-12-12T14:28:15.740Z,87.42
2022-12-12T14:30:52.729Z,87.37
2022-12-12T14:33:58.783Z,88.03
2022-12-12T14:36:52.147Z,87.92
2022-12-12T14:39:52.432Z,88.29
2022-12-12T14:42:27.872Z,88.56
2022-12-12T14:45:30.256Z,88.41
2022-12-12T14:48:19.689Z,88.51
2022-12-12T14:50:51.757Z,88.76
2022-12-12T14:53:23.841Z,89.00
2022-12-12T14:55:54.913Z,89.34
2022-12-12T14:58:26.439Z,89.55
2022-12-12T15:00:58.047Z,88.84
2022-12-12T15:03:33.379Z,89.29
2022-12-12T15:06:27.911Z,89.09
2022-12-12T15:08:59.217Z,89.10
2022-12-12T15:11:31.666Z,89.26
2022-12-12T15:14:01.007Z,89.53
2022-12-12T15:16:36.902Z,89.46
2022-12-12T15:19:05.207Z,89.43
2022-12-12T15:21:33.765Z,89.35
2022-12-12T15:24:02.902Z,89.51
2022-12-12T15:26:31.188Z,89.64
2022-12-12T15:28:59.306Z,89.34
2022-12-12T15:31:27.192Z,89.60
2022-12-12T15:33:55.206Z,89.42
2022-12-12T15:36:27.696Z,89.58
2022-12-12T15:39:15.608Z,89.53
2022-12-12T15:41:45.329Z,89.88
2022-12-12T15:44:19.121Z,89.87
2022-12-12T15:46:48.694Z,89.61
2022-12-12T15:49:39.689Z,89.55
2022-12-12T15:52:19.495Z,89.77
2022-12-12T15:54:51.248Z,90.32
2022-12-12T15:57:21.628Z,90.12
2022-12-12T15:59:55.596Z,90.64
2022-12-12T16:02:26.274Z,90.86
2022-12-12T16:05:04.813Z,89.94
2022-12-12T16:07:37.470Z,89.89
2022-12-12T16:10:23.019Z,90.19
2022-12-12T16:13:02.879Z,90.12
2022-12-12T16:15:35.007Z,90.31
2022-12-12T16:18:07.066Z,90.23
2022-12-12T16:20:35.974Z,89.88
2022-12-12T16:23:18.029Z,89.97
2022-12-12T16:25:47.441Z,90.03
2022-12-12T16:28:25.253Z,89.93
2022-12-12T16:30:57.345Z,90.30
2022-12-12T16:33:31.354Z,90.74
2022-12-12T16:36:01.641Z,90.12
2022-12-12T16:38:30.792Z,90.04
2022-12-12T16:41:02.984Z,90.10
2022-12-12T16:43:30.971Z,90.04
2022-12-12T16:45:59.344Z,90.07
2022-12-12T16:48:32.544Z,90.30
2022-12-12T16:51:03.685Z,90.54
2022-12-12T16:53:31.553Z,90.35
2022-12-12T16:56:01.059Z,89.94
2022-12-12T16:58:29.015Z,90.00
2022-12-12T17:00:58.951Z,90.44
2022-12-12T17:03:27.281Z,91.00
2022-12-12T17:05:55.300Z,90.60
2022-12-12T17:08:23.441Z,90.08
2022-12-12T17:10:53.412Z,90.91
2022-12-12T17:13:42.959Z,90.53
2022-12-12T17:16:11.099Z,90.13
2022-12-12T17:18:39.060Z,90.34
2022-12-12T17:21:07.283Z,90.75
2022-12-12T17:23:35.474Z,90.60
2022-12-12T17:26:05.066Z,89.77
2022-12-12T17:28:34.533Z,90.39
2022-12-12T17:31:07.945Z,90.26
2022-12-12T17:33:45.957Z,90.23
2022-12-12T17:36:17.724Z,90.28
2022-12-12T17:38:45.909Z,90.31
2022-12-12T17:41:13.676Z,90.82
2022-12-12T17:43:42.274Z,90.48
2022-12-12T17:46:17.451Z,90.72
2022-12-12T17:48:47.329Z,90.83
2022-12-12T17:51:17.128Z,90.76
2022-12-12T17:53:45.141Z,90.67
2022-12-12T17:56:14.901Z,90.37
2022-12-12T17:58:44.757Z,90.03
2022-12-12T18:01:15.802Z,90.27
2022-12-12T18:03:45.390Z,90.12
2022-12-12T18:06:14.510Z,90.16
2022-12-12T18:08:42.621Z,90.28
2022-12-12T18:11:12.986Z,90.79
2022-12-12T18:13:41.790Z,91.35
2022-12-12T18:16:12.934Z,91.50
2022-12-12T18:18:43.082Z,91.49
2022-12-12T18:21:23.534Z,91.21
2022-12-12T18:24:00.981Z,90.55
2022-12-12T18:26:29.154Z,91.12
2022-12-12T18:28:58.737Z,91.25
2022-12-12T18:31:26.954Z,90.32
2022-12-12T18:33:56.828Z,90.91
2022-12-12T18:36:26.924Z,90.46
2022-12-12T18:38:56.298Z,90.95
2022-12-12T18:41:26.375Z,90.66
2022-12-12T18:43:54.219Z,90.57
2022-12-12T18:46:24.365Z,90.51
2022-12-12T18:48:52.175Z,91.18
2022-12-12T18:51:23.488Z,90.62
2022-12-12T18:53:52.572Z,90.72
2022-12-12T18:56:22.636Z,90.49
2022-12-12T18:58:50.790Z,90.53
2022-12-12T19:01:21.224Z,90.42
2022-12-12T19:03:51.116Z,90.50
2022-12-12T19:06:22.995Z,91.26
2022-12-12T19:08:51.868Z,90.60
2022-12-12T19:11:19.919Z,90.99
2022-12-12T19:13:47.866Z,90.68
2022-12-12T19:16:18.341Z,91.43
2022-12-12T19:18:46.757Z,91.28
2022-12-12T19:21:16.688Z,91.02
2022-12-12T19:23:46.306Z,90.78
2022-12-12T19:26:15.504Z,91.16
2022-12-12T19:28:43.800Z,91.57
2022-12-12T19:31:14.800Z,90.88
2022-12-12T19:33:43.193Z,91.04
2022-12-12T19:36:13.078Z,91.87
2022-12-12T19:38:40.950Z,90.78
2022-12-12T19:41:11.837Z,91.09
2022-12-12T19:43:39.628Z,91.66
2022-12-12T19:46:10.531Z,91.35
2022-12-12T19:48:39.409Z,90.85
2022-12-12T19:51:09.860Z,91.15
2022-12-12T19:53:39.234Z,90.95
2022-12-12T19:56:07.808Z,90.59
2022-12-12T19:58:38.919Z,91.05
2022-12-12T20:01:09.981Z,91.49
2022-12-12T20:03:38.218Z,90.76
2022-12-12T20:06:08.248Z,90.79
2022-12-12T20:08:37.136Z,91.66
2022-12-12T20:11:06.000Z,90.91
2022-12-12T20:13:34.553Z,90.92
2022-12-12T20:16:08.777Z,91.58
2022-12-12T20:18:37.420Z,90.93
2022-12-12T20:21:06.673Z,90.77
2022-12-12T20:23:43.811Z,91.40
2022-12-12T20:26:18.427Z,92.24
2022-12-12T20:28:46.280Z,90.91
2022-12-12T20:31:18.095Z,92.19
2022-12-12T20:33:46.714Z,91.42
2022-12-12T20:36:17.411Z,92.46
2022-12-12T20:38:46.008Z,92.26
2022-12-12T20:41:16.079Z,91.33
2022-12-12T20:43:44.968Z,90.97
2022-12-12T20:46:13.738Z,92.10
2022-12-12T20:48:43.887Z,91.80
2022-12-12T20:51:45.644Z,91.21
2022-12-12T20:54:02.408Z,91.77
2022-12-12T20:56:30.650Z,92.04
2022-12-12T20:59:01.132Z,91.45
2022-12-12T21:01:30.610Z,90.74
2022-12-12T21:04:01.364Z,91.98
2022-12-12T21:06:31.391Z,91.38
2022-12-12T21:09:01.531Z,91.85
2022-12-12T21:11:30.343Z,91.59
2022-12-12T21:13:58.324Z,91.67
2022-12-12T21:16:29.994Z,91.33
2022-12-12T21:19:01.536Z,91.62
2022-12-12T21:21:31.154Z,91.95
2022-12-12T21:24:02.033Z,91.01
2022-12-12T21:26:31.885Z,90.83
2022-12-12T21:29:01.810Z,91.43
2022-12-12T21:31:32.077Z,90.82
2022-12-12T21:34:02.200Z,90.96
2022-12-12T21:36:31.883Z,91.90
2022-12-12T21:39:00.932Z,91.47
2022-12-12T21:41:29.427Z,92.24
2022-12-12T21:43:59.533Z,92.33
2022-12-12T21:46:29.832Z,92.55
2022-12-12T21:49:16.839Z,91.61
2022-12-12T21:51:46.744Z,91.94
2022-12-12T21:54:15.853Z,91.23
2022-12-12T21:56:44.408Z,91.00
2022-12-12T21:59:13.571Z,90.97
2022-12-12T22:01:41.844Z,91.08
2022-12-12T22:04:11.625Z,91.16
2022-12-12T22:06:39.764Z,91.36
2022-12-12T22:09:11.171Z,91.48
2022-12-12T22:11:49.047Z,91.55
2022-12-12T22:14:19.387Z,92.00
2022-12-12T22:16:48.436Z,92.15
2022-12-12T22:19:17.306Z,92.20
2022-12-12T22:21:46.343Z,91.42
2022-12-12T22:24:16.125Z,92.13
2022-12-12T22:26:45.716Z,92.18
2022-12-12T22:29:15.599Z,91.12
2022-12-12T22:31:45.197Z,91.35
2022-12-12T22:34:15.886Z,91.85
2022-12-12T22:36:45.776Z,91.05
2022-12-12T22:39:17.206Z,92.16
2022-12-12T22:41:45.523Z,92.15
2022-12-12T22:44:15.705Z,92.14
2022-12-12T22:46:44.600Z,92.34
2022-12-12T22:49:14.563Z,91.75
2022-12-12T22:51:43.543Z,91.78
2022-12-12T22:54:11.916Z,91.91
2022-12-12T22:56:42.053Z,91.49
2022-12-12T22:59:11.534Z,92.20
2022-12-12T23:01:39.810Z,92.44
2022-12-12T23:04:08.199Z,92.41
2022-12-12T23:06:37.408Z,92.30
2022-12-12T23:09:07.676Z,92.07
2022-12-12T23:11:36.632Z,92.13
2022-12-12T23:14:07.674Z,91.31
2022-12-12T23:16:36.309Z,90.94
2022-12-12T23:19:06.395Z,90.84
2022-12-12T23:21:35.951Z,91.65
2022-12-12T23:24:04.500Z,92.15
2022-12-12T23:26:35.159Z,91.95
2022-12-12T23:29:03.507Z,91.74
2022-12-12T23:31:35.174Z,91.67
2022-12-12T23:34:06.356Z,92.10
2022-12-12T23:36:34.135Z,91.49
2022-12-12T23:39:06.125Z,91.82
2022-12-12T23:41:34.908Z,91.09
2022-12-12T23:44:02.934Z,91.09
2022-12-12T23:46:32.476Z,92.23
2022-12-12T23:49:02.463Z,92.12
2022-12-12T23:51:32.556Z,91.79
2022-12-12T23:54:02.401Z,90.97
2022-12-12T23:56:31.542Z,92.24
2022-12-12T23:59:00.598Z,91.38
